Wallace, SC (29596)

5:54 PM EST on November 23, 2014 (GMT -0500)
KSCCHERA3 | Change Station
CLOSE
Current Station
Personal Weather Station
Location: Cheraw, SC
Elevation: 110 ft
Nearby Weather Stations

Elev 110 ft 34.70 °N, 79.90 °W | Updated 3 minutes ago

Rain
Rain
62.4 °F
Feels Like 62.4 °F
N
0.0
Wind Variable Wind from SSE
Gusts 0.0 mph

Today
High -- | Low -- °F
--% Chance of Precip.
Yesterday
High -- | Low -- °F
Precip. -- in
7:01 AM 5:10 PM
New Moon, 2% visible
Pressure 29.88 in
Visibility 2.5 miles
Clouds Clear
Dew Point 62 °F
Humidity 99%
Rainfall 0.85 in
Snow Depth Not available.
UV 0 out of 12
Pollen .40 out of 12
Air Quality Not available.
Flu Activity Not available.
METAR KCQW 232235Z AUTO 13007KT 2 1/2SM -RA CLR 16/16 A2988 RMK AO2 P0012

More Conditions Fewer Conditions

Pressure 29.88 in
Visibility 2.5 miles
Clouds Clear
Dew Point 62 °F
Humidity 99%
Rainfall 0.85 in
Snow Depth Not available.
UV 0 out of 12
Pollen .40 out of 12
Air Quality Not available.
Flu Activity Not available.
METAR KCQW 232235Z AUTO 13007KT 2 1/2SM -RA CLR 16/16 A2988 RMK AO2 P0012

More Conditions Fewer Conditions

10-Day Weather Forecast

Almanac

Astronomy

Nov. 23, 2014 Rise Set
Actual Time
Civil Twilight
Nautical Twilight
Astronomical Twilight
Moon
Length of Visible Light
Length of Day
Tomorrow will be .
, % of the Moon is Illuminated

Today's Extremes

State Highs State Lows

Community

WunderPhotos

Upload Photos

1,773,187 photos uploaded!

WunderBlogs® & News

Nearby

Air Quality

  Air Quality AQ Index Pollutant
Not available.

Snow Depth

Station Depth Elevation

Earthquake Activity

City Distance Mag. Time & Date
Minimum magnitude displayed is 2.5.

Coastal Water Temperatures

Place Temperature

Nearby Weather Stations